Time;durP1;ratioP1;P1;durP2;ratioP2;P2;SDS_P1;SDS_P2;PMS_P1;PMS_P2;Temp;Humidity;BMP_temperature;BMP_pressure;BME280_temperature;BME280_humidity;BME280_pressure;Samples;Min_cycle;Max_cycle;Signal;HPM_P1;HPM_P2
2021/10/18 00:00:47;;;;;;;45.10;25.88;;;;;;;5.09;73.15;97739.17;1769563;80;25700;-84
2021/10/18 00:03:13;;;;;;;43.13;25.30;;;;;;;5.12;73.11;97737.51;1764099;80;27379;-83
2021/10/18 00:05:40;;;;;;;43.92;25.70;;;;;;;5.13;73.14;97734.33;1764140;80;25803;-83
2021/10/18 00:08:06;;;;;;;45.08;25.90;;;;;;;5.08;73.14;97735.66;1770848;78;25747;-84
2021/10/18 00:10:33;;;;;;;45.12;26.93;;;;;;;5.05;73.21;97734.69;1765172;80;25681;-83
2021/10/18 00:13:00;;;;;;;47.90;26.77;;;;;;;5.03;73.22;97739.86;1768045;78;25501;-84
2021/10/18 00:15:26;;;;;;;46.95;26.95;;;;;;;5.03;73.26;97736.69;1767908;78;28223;-84
2021/10/18 00:17:55;;;;;;;49.48;27.55;;;;;;;5.04;73.32;97736.19;1764949;78;25810;-83
2021/10/18 00:20:24;;;;;;;46.18;26.80;;;;;;;5.06;73.40;97732.84;1730882;80;26246;-83
2021/10/18 00:22:50;;;;;;;45.80;25.65;;;;;;;5.05;73.45;97732.51;1722291;82;26424;-83
2021/10/18 00:25:18;;;;;;;46.85;26.57;;;;;;;5.03;73.53;97732.67;1730046;82;25819;-84
2021/10/18 00:27:44;;;;;;;46.00;26.80;;;;;;;5.05;73.58;97740.03;1732386;82;28091;-84
2021/10/18 00:30:12;;;;;;;46.42;27.00;;;;;;;5.07;73.59;97735.86;1721970;82;26291;-84
2021/10/18 00:32:38;;;;;;;44.53;26.35;;;;;;;5.06;73.61;97735.52;1716542;82;25764;-84
2021/10/18 00:35:06;;;;;;;44.30;26.52;;;;;;;5.06;73.62;97731.51;1697695;82;26434;-83
2021/10/18 00:37:32;;;;;;;44.00;26.02;;;;;;;5.07;73.71;97732.65;1714421;82;25862;-84
2021/10/18 00:39:59;;;;;;;44.10;25.30;;;;;;;5.09;73.74;97732.48;1703027;82;26632;-84
2021/10/18 00:42:26;;;;;;;42.95;26.27;;;;;;;5.05;73.75;97728.50;1726169;82;25318;-85
2021/10/18 00:44:53;;;;;;;43.15;25.10;;;;;;;5.06;73.78;97727.49;1720810;80;25675;-85
2021/10/18 00:47:21;;;;;;;44.77;24.77;;;;;;;5.07;73.84;97733.98;1720191;80;25876;-84
2021/10/18 00:49:49;;;;;;;42.62;25.27;;;;;;;5.07;73.93;97723.81;1714928;82;25704;-84
2021/10/18 00:52:18;;;;;;;47.17;24.32;;;;;;;5.10;74.02;97730.14;1718732;80;27379;-84
2021/10/18 00:54:47;;;;;;;42.40;25.05;;;;;;;5.07;74.08;97721.95;1708820;82;26022;-84
2021/10/18 00:57:18;;;;;;;43.08;24.98;;;;;;;5.09;74.09;97719.11;1727849;82;25794;-83
2021/10/18 00:59:45;;;;;;;38.10;22.93;;;;;;;5.09;74.06;97723.12;1723038;80;25784;-83
2021/10/18 01:02:13;;;;;;;46.33;26.37;;;;;;;5.10;74.16;97722.62;1720319;80;25768;-82
2021/10/18 01:04:40;;;;;;;41.42;25.20;;;;;;;5.09;74.18;97717.77;1720462;82;27362;-83
2021/10/18 01:07:07;;;;;;;41.20;24.72;;;;;;;5.09;74.24;97727.13;1729514;82;25842;-83
2021/10/18 01:09:33;;;;;;;42.62;24.63;;;;;;;5.13;74.28;97723.13;1721725;80;25750;-83
2021/10/18 01:12:00;;;;;;;42.53;24.67;;;;;;;5.13;74.35;97720.45;1717596;80;26488;-83
2021/10/18 01:14:26;;;;;;;45.92;25.72;;;;;;;5.09;74.32;97724.45;1724721;81;25862;-84
2021/10/18 01:16:53;;;;;;;46.98;26.65;;;;;;;5.10;74.38;97726.12;1717146;82;27442;-84
2021/10/18 01:19:23;;;;;;;42.10;26.23;;;;;;;5.13;74.33;97724.97;1726776;80;25801;-83
2021/10/18 01:21:57;;;;;;;43.58;26.55;;;;;;;5.14;74.34;97726.64;1750678;80;25748;-83
2021/10/18 01:24:24;;;;;;;47.80;26.37;;;;;;;5.17;74.38;97727.64;1748154;79;25729;-83
2021/10/18 01:26:50;;;;;;;47.67;26.93;;;;;;;5.17;74.49;97724.47;1736096;80;25761;-82
2021/10/18 01:29:17;;;;;;;47.50;27.45;;;;;;;5.18;74.51;97730.66;1761914;80;27467;-84
2021/10/18 01:31:44;;;;;;;50.30;28.35;;;;;;;5.20;74.49;97733.47;1761817;80;25817;-84
2021/10/18 01:34:10;;;;;;;48.58;27.93;;;;;;;5.21;74.51;97729.80;1761954;80;25712;-83
2021/10/18 01:36:37;;;;;;;53.78;30.23;;;;;;;5.20;74.47;97728.12;1761983;80;25766;-83
2021/10/18 01:39:04;;;;;;;48.68;27.67;;;;;;;5.22;74.50;97727.95;1728964;81;25764;-83
2021/10/18 01:41:30;;;;;;;47.50;28.87;;;;;;;5.25;74.55;97724.95;1743422;80;28210;-83
2021/10/18 01:43:57;;;;;;;46.48;27.75;;;;;;;5.25;74.53;97723.11;1734928;80;25814;-83
2021/10/18 01:46:23;;;;;;;48.98;28.17;;;;;;;5.25;74.61;97724.44;1756283;80;25718;-84
2021/10/18 01:48:50;;;;;;;53.80;28.38;;;;;;;5.26;74.59;97722.60;1755126;80;25787;-83
2021/10/18 01:51:16;;;;;;;47.13;28.38;;;;;;;5.26;74.53;97714.07;1756329;80;25705;-86
2021/10/18 01:53:43;;;;;;;45.83;26.27;;;;;;;5.24;74.54;97716.08;1747477;80;27408;-83
2021/10/18 01:56:10;;;;;;;49.23;26.93;;;;;;;5.21;74.61;97712.90;1729978;80;25817;-83
2021/10/18 01:58:36;;;;;;;46.70;26.93;;;;;;;5.15;74.58;97708.24;1726926;81;25755;-84
2021/10/18 02:01:04;;;;;;;46.88;27.70;;;;;;;5.15;74.63;97711.75;1726221;80;25766;-85
2021/10/18 02:03:31;;;;;;;43.13;26.17;;;;;;;5.10;74.68;97710.08;1734116;80;25719;-84
2021/10/18 02:05:58;;;;;;;44.25;25.92;;;;;;;5.09;74.72;97705.73;1732922;80;27534;-85
2021/10/18 02:08:24;;;;;;;45.23;27.87;;;;;;;5.07;74.73;97705.89;1728870;80;25804;-84
2021/10/18 02:10:51;;;;;;;49.55;26.85;;;;;;;5.08;74.72;97702.72;1729405;80;25782;-84
2021/10/18 02:13:17;;;;;;;44.45;26.05;;;;;;;5.07;74.73;97706.42;1730119;80;25834;-84
2021/10/18 02:15:44;;;;;;;48.98;26.40;;;;;;;4.98;74.75;97704.73;1734577;81;25760;-84
2021/10/18 02:18:11;;;;;;;46.53;25.65;;;;;;;4.89;74.88;97711.11;1727608;80;28162;-84
2021/10/18 02:20:37;;;;;;;47.33;27.02;;;;;;;4.88;75.00;97710.77;1736040;80;25990;-83
2021/10/18 02:23:04;;;;;;;46.55;25.80;;;;;;;4.89;75.06;97716.45;1755942;79;25738;-86
2021/10/18 02:25:30;;;;;;;45.48;25.82;;;;;;;4.84;75.00;97712.10;1749625;80;25760;-84
2021/10/18 02:27:57;;;;;;;45.92;26.27;;;;;;;4.83;74.96;97709.13;1769504;79;25770;-84
2021/10/18 02:30:24;;;;;;;42.25;25.10;;;;;;;4.80;74.87;97712.13;1785750;78;27517;-83
2021/10/18 02:32:51;;;;;;;41.80;24.43;;;;;;;4.76;74.89;97709.44;1766671;80;25723;-84
2021/10/18 02:35:17;;;;;;;40.78;23.90;;;;;;;4.75;74.92;97709.11;1769822;80;25724;-85
2021/10/18 02:37:44;;;;;;;40.52;22.27;;;;;;;4.74;74.84;97710.11;1769335;79;26462;-85
2021/10/18 02:40:11;;;;;;;36.70;21.48;;;;;;;4.70;74.80;97708.28;1766941;79;25676;-84
2021/10/18 02:42:38;;;;;;;36.30;21.95;;;;;;;4.63;74.63;97705.43;1771561;80;28242;-83
2021/10/18 02:45:11;;;;;;;39.42;21.75;;;;;;;4.57;74.74;97704.77;1771462;79;25829;-84
2021/10/18 02:47:38;;;;;;;32.83;21.27;;;;;;;4.55;74.79;97708.11;1771707;80;25782;-85
2021/10/18 02:50:05;;;;;;;34.48;20.43;;;;;;;4.54;74.71;97708.27;1749702;79;25903;-84
2021/10/18 02:52:32;;;;;;;36.73;20.85;;;;;;;4.50;74.72;97711.77;1778984;80;25799;-84
2021/10/18 02:54:58;;;;;;;30.68;18.12;;;;;;;4.46;74.69;97718.47;1766462;79;28337;-83
2021/10/18 02:57:25;;;;;;;32.63;18.87;;;;;;;4.39;74.62;97710.75;1770057;80;25826;-87
2021/10/18 02:59:51;;;;;;;28.12;17.75;;;;;;;4.32;74.72;97716.44;1769151;79;25754;-85
2021/10/18 03:02:18;;;;;;;32.75;18.90;;;;;;;4.31;74.71;97713.42;1767494;79;25638;-83
2021/10/18 03:04:48;;;;;;;28.92;18.42;;;;;;;4.27;74.71;97711.58;1778701;80;25812;-83
2021/10/18 03:07:14;;;;;;;29.37;18.70;;;;;;;4.20;74.59;97711.07;1771748;80;27316;-84
2021/10/18 03:09:41;;;;;;;27.30;17.95;;;;;;;4.17;74.77;97714.90;1771596;79;25717;-84
2021/10/18 03:12:08;;;;;;;31.40;18.65;;;;;;;4.18;74.80;97709.89;1764631;80;25769;-84
2021/10/18 03:14:34;;;;;;;24.35;14.87;;;;;;;4.16;74.79;97707.87;1757513;79;26274;-83
2021/10/18 03:17:01;;;;;;;27.17;15.85;;;;;;;4.14;74.79;97713.88;1767583;80;25802;-84
2021/10/18 03:19:27;;;;;;;24.87;15.72;;;;;;;4.13;74.79;97706.03;1769296;79;27977;-84
2021/10/18 03:21:54;;;;;;;24.63;15.38;;;;;;;4.12;74.77;97707.02;1774311;79;25805;-83
2021/10/18 03:24:20;;;;;;;21.75;14.30;;;;;;;4.08;74.72;97717.72;1782753;80;25805;-84
2021/10/18 03:26:47;;;;;;;26.65;14.70;;;;;;;4.04;74.74;97717.70;1781175;79;26516;-84
2021/10/18 03:29:13;;;;;;;23.87;15.28;;;;;;;3.96;74.82;97714.02;1781191;80;25761;-84
2021/10/18 03:31:41;;;;;;;25.70;15.63;;;;;;;3.95;74.87;97717.69;1781226;79;28420;-84
2021/10/18 03:34:07;;;;;;;23.42;14.83;;;;;;;3.93;74.91;97721.02;1795683;79;25809;-84
2021/10/18 03:36:34;;;;;;;25.27;15.03;;;;;;;3.90;74.87;97721.83;1788749;79;25779;-84
2021/10/18 03:39:00;;;;;;;26.73;15.72;;;;;;;3.83;74.84;97723.48;1781050;80;25778;-83
2021/10/18 03:41:27;;;;;;;25.82;15.13;;;;;;;3.78;74.95;97718.62;1781113;79;25706;-85
2021/10/18 03:43:54;;;;;;;25.32;14.60;;;;;;;3.80;75.15;97721.13;1781202;79;28214;-83
2021/10/18 03:46:20;;;;;;;23.75;14.47;;;;;;;3.78;75.10;97721.28;1781052;80;25812;-84
2021/10/18 03:48:47;;;;;;;27.48;14.95;;;;;;;3.78;75.25;97727.13;1781103;79;25806;-83
2021/10/18 03:51:13;;;;;;;23.65;14.58;;;;;;;3.77;75.29;97730.29;1781132;79;26359;-84
2021/10/18 03:53:40;;;;;;;21.27;13.68;;;;;;;3.76;75.27;97721.94;1781123;79;26259;-84
2021/10/18 03:56:06;;;;;;;20.95;13.50;;;;;;;3.73;75.22;97732.97;1781017;80;28278;-84
2021/10/18 03:58:33;;;;;;;22.10;14.18;;;;;;;3.73;75.30;97735.63;1780929;79;26265;-84
2021/10/18 04:01:01;;;;;;;22.93;14.45;;;;;;;3.73;75.26;97740.14;1781135;80;25734;-84
2021/10/18 04:03:28;;;;;;;26.02;16.00;;;;;;;3.68;75.28;97732.59;1781269;79;25764;-83
2021/10/18 04:05:54;;;;;;;26.85;15.20;;;;;;;3.65;75.44;97741.41;1780921;79;25761;-84
2021/10/18 04:08:23;;;;;;;25.08;14.68;;;;;;;3.68;75.52;97741.10;1781082;80;27513;-84
2021/10/18 04:10:50;;;;;;;29.00;16.30;;;;;;;3.69;75.50;97740.11;1780965;79;25777;-85
2021/10/18 04:13:16;;;;;;;28.40;16.12;;;;;;;3.65;75.54;97746.75;1781161;79;25739;-85
2021/10/18 04:15:43;;;;;;;27.35;14.50;;;;;;;3.66;75.65;97742.59;1781077;79;26389;-87
2021/10/18 04:18:09;;;;;;;29.48;16.17;;;;;;;3.68;75.67;97752.62;1781188;79;25241;-84
2021/10/18 04:20:36;;;;;;;29.05;15.38;;;;;;;3.68;75.63;97756.62;1781441;80;27338;-83
2021/10/18 04:23:03;;;;;;;29.02;16.12;;;;;;;3.69;75.68;97762.80;1782194;79;25807;-84
2021/10/18 04:25:29;;;;;;;31.82;16.00;;;;;;;3.69;75.68;97760.97;1782449;80;25758;-84
2021/10/18 04:27:56;;;;;;;30.40;16.70;;;;;;;3.72;75.74;97764.66;1782525;79;25892;-84
2021/10/18 04:30:23;;;;;;;33.15;17.45;;;;;;;3.67;75.78;97760.28;1782234;79;25765;-84
2021/10/18 04:32:49;;;;;;;35.63;17.45;;;;;;;3.70;75.91;97769.81;1782407;80;27531;-84
2021/10/18 04:35:16;;;;;;;33.92;18.23;;;;;;;3.69;76.01;97768.98;1782318;79;26427;-83
2021/10/18 04:37:42;;;;;;;36.63;18.65;;;;;;;3.73;76.10;97767.67;1782406;79;25637;-83
2021/10/18 04:40:09;;;;;;;43.17;22.30;;;;;;;3.77;76.16;97773.02;1782533;79;25703;-83
2021/10/18 04:42:36;;;;;;;48.95;26.07;;;;;;;3.76;76.18;97765.16;1782455;79;26114;-85
2021/10/18 04:45:03;;;;;;;41.00;22.95;;;;;;;3.77;76.28;97765.00;1782407;79;27516;-83
2021/10/18 04:47:29;;;;;;;46.68;24.30;;;;;;;3.78;76.31;97770.69;1782415;79;25917;-83
2021/10/18 04:49:56;;;;;;;42.13;21.75;;;;;;;3.81;76.43;97766.37;1782435;79;25932;-83
2021/10/18 04:52:22;;;;;;;39.60;22.15;;;;;;;3.85;76.46;97774.41;1782193;79;25734;-83
2021/10/18 04:54:49;;;;;;;36.42;23.05;;;;;;;3.85;76.54;97769.56;1782532;80;25894;-87
2021/10/18 04:57:15;;;;;;;37.10;22.05;;;;;;;3.86;76.58;97772.08;1782490;79;27352;-83
2021/10/18 04:59:42;;;;;;;34.78;20.50;;;;;;;3.85;76.60;97767.73;1782350;79;25771;-83
2021/10/18 05:02:09;;;;;;;35.25;19.12;;;;;;;3.88;76.66;97782.08;1782388;80;25767;-84
2021/10/18 05:04:35;;;;;;;33.28;18.48;;;;;;;3.94;76.61;97784.62;1782555;79;26299;-84
2021/10/18 05:07:02;;;;;;;33.83;18.10;;;;;;;3.98;76.66;97783.31;1782464;79;25505;-83
2021/10/18 05:09:28;;;;;;;34.75;18.65;;;;;;;4.01;76.67;97780.79;1761090;79;27355;-84
2021/10/18 05:11:55;;;;;;;30.82;17.32;;;;;;;4.06;76.63;97782.49;1803148;78;26211;-84
2021/10/18 05:14:22;;;;;;;32.40;18.25;;;;;;;4.11;76.58;97788.17;1802963;78;25766;-83
2021/10/18 05:16:48;;;;;;;35.00;19.40;;;;;;;4.15;76.60;97792.20;1814877;78;25740;-84
2021/10/18 05:19:15;;;;;;;37.70;18.55;;;;;;;4.16;76.60;97794.72;1784411;78;26989;-83
2021/10/18 05:21:42;;;;;;;39.35;20.95;;;;;;;4.21;76.66;97791.57;1797678;78;28405;-84
2021/10/18 05:24:08;;;;;;;35.60;19.02;;;;;;;4.23;76.66;97795.73;1797255;78;26059;-83
2021/10/18 05:26:35;;;;;;;36.83;19.48;;;;;;;4.28;76.70;97796.59;1797337;78;25665;-85
2021/10/18 05:29:02;;;;;;;35.70;18.32;;;;;;;4.32;76.67;97804.13;1797374;78;25739;-83
2021/10/18 05:31:29;;;;;;;42.00;21.10;;;;;;;4.34;76.69;97807.98;1797306;78;25902;-83
2021/10/18 05:33:55;;;;;;;34.98;19.23;;;;;;;4.40;76.65;97815.34;1797202;78;28052;-83
2021/10/18 05:36:22;;;;;;;43.92;21.62;;;;;;;4.44;76.66;97818.53;1797154;78;25978;-84
2021/10/18 05:38:49;;;;;;;39.42;19.57;;;;;;;4.47;76.64;97825.70;1797272;78;25769;-84
2021/10/18 05:41:15;;;;;;;41.53;20.72;;;;;;;4.47;76.67;97825.70;1797190;78;25880;-83
2021/10/18 05:43:42;;;;;;;39.15;20.72;;;;;;;4.49;76.65;97829.05;1797304;78;25903;-84
2021/10/18 05:46:09;;;;;;;39.27;21.30;;;;;;;4.50;76.73;97840.09;1797026;78;28313;-84
2021/10/18 05:48:36;;;;;;;41.08;21.95;;;;;;;4.50;76.70;97838.75;1797087;78;26266;-84
2021/10/18 05:51:03;;;;;;;40.38;22.32;;;;;;;4.52;76.77;97840.77;1797331;78;26320;-83
2021/10/18 05:53:30;;;;;;;42.65;22.55;;;;;;;4.54;76.83;97848.12;1797335;78;25691;-84
2021/10/18 05:55:56;;;;;;;46.33;22.52;;;;;;;4.57;76.87;97849.15;1797226;78;25761;-83
2021/10/18 05:58:23;;;;;;;43.17;22.45;;;;;;;4.57;76.83;97843.80;1797213;78;27392;-84
2021/10/18 06:00:49;;;;;;;41.25;22.37;;;;;;;4.61;76.83;97844.29;1797139;78;25675;-83
2021/10/18 06:03:16;;;;;;;42.35;23.47;;;;;;;4.64;76.92;97842.14;1797267;78;25899;-83
2021/10/18 06:05:44;;;;;;;44.77;23.65;;;;;;;4.65;76.90;97841.14;1797261;78;25777;-83
2021/10/18 06:08:13;;;;;;;51.10;24.15;;;;;;;4.70;77.01;97842.00;1797242;78;25929;-84
2021/10/18 06:10:42;;;;;;;46.08;24.12;;;;;;;4.70;76.95;97849.52;1797154;78;27441;-85
2021/10/18 06:13:09;;;;;;;39.67;21.95;;;;;;;4.75;76.98;97843.66;1797156;78;25895;-84
2021/10/18 06:15:36;;;;;;;48.35;24.50;;;;;;;4.77;76.98;97855.53;1796846;78;26259;-83
2021/10/18 06:18:12;;;;;;;43.42;23.45;;;;;;;4.81;77.00;97848.37;1797191;78;25943;-83
2021/10/18 06:20:44;;;;;;;47.43;24.32;;;;;;;4.85;77.06;97855.55;1797036;78;26253;-83
2021/10/18 06:23:13;;;;;;;;;;;;;;;4.91;77.07;97864.27;1799312;78;27439;-84
2021/10/18 06:25:40;;;;;;;45.10;24.10;;;;;;;4.99;77.08;97868.28;1796797;78;25773;-83
2021/10/18 06:28:10;;;;;;;43.65;23.32;;;;;;;5.03;77.00;97863.78;1796896;78;26116;-83
2021/10/18 06:30:37;;;;;;;40.78;23.87;;;;;;;5.07;77.04;97862.95;1796863;78;25852;-84
2021/10/18 06:33:04;;;;;;;47.27;24.45;;;;;;;5.12;77.05;97865.95;1796998;78;25757;-83
2021/10/18 06:35:35;;;;;;;45.63;26.23;;;;;;;5.20;77.11;97875.81;1796613;78;27574;-82
2021/10/18 06:38:12;;;;;;;55.73;30.27;;;;;;;5.23;77.14;97883.02;1796843;78;25682;-84
2021/10/18 06:40:40;;;;;;;70.22;35.17;;;;;;;5.27;77.27;97884.38;1795460;78;25710;-85
2021/10/18 06:43:06;;;;;;;75.10;36.40;;;;;;;5.27;77.34;97880.36;1796923;78;25832;-84
2021/10/18 06:45:34;;;;;;;71.62;35.48;;;;;;;5.29;77.33;97883.71;1795872;78;25876;-84
2021/10/18 06:48:01;;;;;;;67.00;35.33;;;;;;;5.31;77.31;97884.36;1782283;78;27456;-83
2021/10/18 06:50:29;;;;;;;63.73;33.90;;;;;;;5.35;77.23;97890.22;1788028;78;25832;-84
2021/10/18 06:52:57;;;;;;;49.42;30.15;;;;;;;5.36;77.33;97888.72;1789409;78;25853;-84
2021/10/18 06:55:26;;;;;;;50.85;27.05;;;;;;;5.40;77.35;97891.41;1781556;78;25794;-83
2021/10/18 06:57:52;;;;;;;49.65;27.10;;;;;;;5.47;77.28;97890.22;1786278;78;25733;-84
2021/10/18 07:00:18;;;;;;;67.78;31.85;;;;;;;5.55;77.25;97893.42;1779211;78;27204;-83
2021/10/18 07:02:45;;;;;;;71.47;31.62;;;;;;;5.62;77.30;97903.78;1787491;78;25738;-83
2021/10/18 07:05:11;;;;;;;59.50;29.87;;;;;;;5.67;77.24;97900.11;1780037;78;26516;-85
2021/10/18 07:07:38;;;;;;;55.70;29.42;;;;;;;5.71;77.10;97900.09;1786020;78;25816;-83
2021/10/18 07:10:08;;;;;;;51.92;28.47;;;;;;;5.79;77.02;97908.14;1782864;78;25748;-85
2021/10/18 07:12:36;;;;;;;50.12;26.85;;;;;;;5.85;77.04;97906.11;1784130;78;27541;-83
2021/10/18 07:15:04;;;;;;;49.45;26.00;;;;;;;5.90;77.07;97903.80;1769752;78;25714;-83
2021/10/18 07:17:31;;;;;;;47.03;26.82;;;;;;;5.98;76.97;97914.50;1773068;78;25771;-84
2021/10/18 07:19:59;;;;;;;48.68;26.48;;;;;;;6.01;76.80;97910.14;1773129;78;25828;-83
2021/10/18 07:22:30;;;;;;;44.15;26.60;;;;;;;6.07;76.75;97918.83;1778617;78;25694;-83
2021/10/18 07:24:56;;;;;;;43.65;25.35;;;;;;;6.12;76.69;97916.98;1780822;80;28736;-83
2021/10/18 07:27:26;;;;;;;48.13;26.37;;;;;;;6.19;76.68;97925.16;1781140;80;25835;-83
2021/10/18 07:29:56;;;;;;;45.58;26.42;;;;;;;6.24;76.74;97921.48;1757354;79;25937;-85
2021/10/18 07:32:22;;;;;;;42.35;25.55;;;;;;;6.28;76.82;97926.84;1760325;79;26513;-84
2021/10/18 07:34:48;;;;;;;41.33;24.32;;;;;;;6.31;76.78;97925.14;1759006;79;25778;-83
2021/10/18 07:37:18;;;;;;;40.75;24.40;;;;;;;6.35;76.82;97929.99;1758825;79;27354;-83
2021/10/18 07:39:43;;;;;;;44.05;25.68;;;;;;;6.39;76.79;97925.13;1758763;79;26346;-81
2021/10/18 07:42:14;;;;;;;61.92;35.50;;;;;;;6.43;76.87;97927.78;1767182;79;25631;-82
2021/10/18 07:44:38;;;;;;;49.13;27.52;;;;;;;6.47;76.99;97929.95;1758391;79;26683;-82
2021/10/18 07:47:05;;;;;;;40.52;24.15;;;;;;;6.50;77.03;97930.95;1764814;79;25688;-82
2021/10/18 07:49:35;;;;;;;37.10;24.87;;;;;;;6.55;77.00;97930.92;1768044;79;27401;-82
2021/10/18 07:52:00;;;;;;;41.42;26.55;;;;;;;6.57;76.93;97933.77;1767550;79;25868;-82
2021/10/18 07:54:29;;;;;;;48.13;26.23;;;;;;;6.61;76.98;97931.08;1760792;79;25766;-83
2021/10/18 07:56:55;;;;;;;43.95;24.18;;;;;;;6.66;77.01;97941.27;1759076;79;25749;-82
2021/10/18 07:59:21;;;;;;;47.50;26.57;;;;;;;6.71;76.85;97938.41;1755159;79;25791;-82
2021/10/18 08:01:48;;;;;;;42.43;25.02;;;;;;;6.76;76.75;97938.71;1752646;79;27466;-83
2021/10/18 08:04:14;;;;;;;50.95;26.70;;;;;;;6.81;76.82;97935.02;1757813;79;25750;-84
2021/10/18 08:06:41;;;;;;;45.65;27.65;;;;;;;6.88;76.84;97941.03;1755594;80;25789;-84
2021/10/18 08:09:09;;;;;;;47.88;27.55;;;;;;;6.93;76.70;97935.45;1751284;79;25830;-84
2021/10/18 08:11:37;;;;;;;49.63;28.70;;;;;;;6.98;76.65;97943.00;1754131;80;25785;-85
2021/10/18 08:14:03;;;;;;;53.75;29.92;;;;;;;7.04;76.78;97940.94;1752811;79;28199;-83
2021/10/18 08:16:30;;;;;;;56.73;30.72;;;;;;;7.10;76.89;97945.11;1762890;80;25877;-83
2021/10/18 08:18:57;;;;;;;41.10;27.00;;;;;;;7.15;76.90;97936.50;1752878;79;25898;-84
2021/10/18 08:21:24;;;;;;;41.05;26.12;;;;;;;7.21;76.83;97930.45;1755178;79;26690;-84
2021/10/18 08:23:51;;;;;;;43.68;24.75;;;;;;;7.28;76.86;97936.77;1750443;80;25683;-84
2021/10/18 08:26:18;;;;;;;34.58;21.50;;;;;;;7.35;76.92;97937.74;1752868;79;27525;-83
2021/10/18 08:28:44;;;;;;;32.98;19.42;;;;;;;7.43;76.82;97938.18;1758020;79;25718;-83
2021/10/18 08:31:11;;;;;;;30.37;17.15;;;;;;;7.50;76.36;97941.30;1767103;80;25796;-83
2021/10/18 08:33:38;;;;;;;30.45;19.07;;;;;;;7.59;76.16;97936.73;1753523;80;25904;-84
2021/10/18 08:36:05;;;;;;;32.80;18.67;;;;;;;7.66;75.92;97939.52;1751527;79;26111;-84
2021/10/18 08:38:49;;;;;;;30.77;19.02;;;;;;;7.75;75.92;97941.13;1754051;80;28386;-85
2021/10/18 08:41:26;;;;;;;31.50;18.42;;;;;;;7.82;75.94;97942.09;1753120;80;26053;-84
2021/10/18 08:44:14;;;;;;;30.88;18.48;;;;;;;7.88;75.56;97940.00;1770366;79;25802;-84
2021/10/18 08:46:22;;;;;;;29.15;17.75;;;;;;;7.96;75.40;97945.33;1750145;79;25744;-84
2021/10/18 08:48:52;;;;;;;30.75;18.20;;;;;;;8.05;75.32;97938.85;1751913;80;25790;-83
2021/10/18 08:51:20;;;;;;;33.38;17.37;;;;;;;8.15;75.08;97944.80;1752006;80;28473;-84
2021/10/18 08:53:46;;;;;;;26.55;17.30;;;;;;;8.24;74.73;97945.04;1750453;80;25787;-83
2021/10/18 08:56:13;;;;;;;27.52;17.65;;;;;;;8.32;74.50;97944.17;1768392;80;26100;-84
2021/10/18 08:58:40;;;;;;;29.70;15.15;;;;;;;8.39;74.27;97942.91;1758284;79;26350;-83
2021/10/18 09:01:07;;;;;;;27.45;16.55;;;;;;;8.41;73.95;97944.91;1765920;80;25634;-83
2021/10/18 09:03:34;;;;;;;25.25;15.80;;;;;;;8.43;73.84;97950.95;1772486;79;28231;-84
2021/10/18 09:06:21;;;;;;;29.87;15.88;;;;;;;8.42;73.83;97958.69;1764737;80;26049;-84
2021/10/18 09:08:55;;;;;;;26.02;15.88;;;;;;;8.44;73.67;97948.59;1763585;80;25765;-83
2021/10/18 09:11:31;;;;;;;23.65;15.28;;;;;;;8.47;73.77;97949.54;1766443;79;25761;-85
2021/10/18 09:13:58;;;;;;;23.73;13.68;;;;;;;8.51;73.84;97952.20;1771783;80;25867;-84
2021/10/18 09:16:35;;;;;;;18.98;13.43;;;;;;;8.56;73.64;97959.22;1765802;79;27368;-84
2021/10/18 09:19:15;;;;;;;24.55;14.70;;;;;;;8.60;73.27;97953.77;1767894;79;25762;-84
2021/10/18 09:21:54;;;;;;;24.40;15.38;;;;;;;8.59;73.18;97958.31;1755345;79;25781;-84
2021/10/18 09:24:36;;;;;;;28.85;17.35;;;;;;;8.59;73.16;97950.75;1774168;78;26768;-82
2021/10/18 09:27:07;;;;;;;29.17;16.80;;;;;;;8.61;73.05;97959.48;1769743;78;26334;-83
2021/10/18 09:29:46;;;;;;;28.15;16.32;;;;;;;8.60;73.05;97958.64;1766960;78;27489;-83
2021/10/18 09:32:23;;;;;;;25.85;17.15;;;;;;;8.63;73.17;97958.28;1768210;78;25726;-84
2021/10/18 09:34:50;;;;;;;36.77;21.55;;;;;;;8.68;73.13;97963.11;1768580;78;25765;-83
2021/10/18 09:37:17;;;;;;;37.20;22.48;;;;;;;8.74;72.94;97963.70;1771571;78;25826;-83
2021/10/18 09:39:46;;;;;;;29.87;19.02;;;;;;;8.74;72.69;97959.66;1766517;78;26147;-84
2021/10/18 09:42:19;;;;;;;32.75;17.48;;;;;;;8.75;72.77;97969.41;1772222;78;27614;-84
2021/10/18 09:45:25;;;;;;;30.60;16.05;;;;;;;8.80;72.63;97962.14;1771047;78;25232;-84
2021/10/18 10:52:09;;;;;;;15.30;8.88;;;;;;;9.15;73.63;97975.33;1771349;78;25732;-83
2021/10/18 10:53:58;;;;;;;13.75;7.92;;;;;;;9.13;73.37;97984.94;1757383;78;27432;-83
2021/10/18 10:56:44;;;;;;;19.10;10.60;;;;;;;9.18;73.36;97980.31;1736327;80;26013;-83
2021/10/18 10:59:24;;;;;;;14.18;9.43;;;;;;;9.23;73.22;97974.70;1749615;79;26403;-84
2021/10/18 11:02:12;;;;;;;16.85;9.08;;;;;;;9.29;73.14;97975.30;1734200;80;25839;-84
2021/10/18 11:04:42;;;;;;;17.80;11.53;;;;;;;9.33;73.03;97970.34;1749539;80;25794;-83
2021/10/18 11:07:17;;;;;;;13.45;8.33;;;;;;;9.36;73.00;97963.23;1746564;80;27369;-84
2021/10/18 11:09:56;;;;;;;11.50;7.35;;;;;;;9.35;72.85;97964.27;1754256;80;26011;-84
2021/10/18 11:12:34;;;;;;;10.05;6.58;;;;;;;9.38;72.80;97970.62;1755959;81;25499;-83
2021/10/18 11:15:08;;;;;;;11.48;6.55;;;;;;;9.40;72.73;97973.97;1736668;80;25773;-83
2021/10/18 11:17:48;;;;;;;8.78;6.20;;;;;;;9.43;72.82;97977.61;1749831;80;25811;-83
2021/10/18 11:20:22;;;;;;;8.58;6.70;;;;;;;9.44;72.77;97977.94;1756296;80;28113;-83
2021/10/18 11:22:53;;;;;;;10.78;7.78;;;;;;;9.43;72.78;97970.88;1758623;80;25317;-83
2021/10/18 11:25:35;;;;;;;11.93;7.33;;;;;;;9.44;72.71;97969.84;1762919;81;25859;-83
2021/10/18 11:28:04;;;;;;;11.22;7.42;;;;;;;9.45;72.76;97966.13;1762885;81;26680;-83
2021/10/18 11:30:34;;;;;;;10.70;7.47;;;;;;;9.46;72.76;97962.41;1762592;81;25726;-83
2021/10/18 11:33:08;;;;;;;9.68;5.78;;;;;;;9.50;72.78;97959.67;1762990;80;27474;-84
2021/10/18 11:35:35;;;;;;;10.53;6.80;;;;;;;9.56;72.74;97964.28;1762251;79;25263;-87
2021/10/18 11:38:11;;;;;;;10.03;6.80;;;;;;;9.62;72.68;97965.39;1762819;80;26552;-84
2021/10/18 11:40:46;;;;;;;12.37;8.23;;;;;;;9.62;72.60;97964.04;1763125;81;25979;-83
2021/10/18 11:43:18;;;;;;;22.90;13.43;;;;;;;9.64;72.56;97960.13;1752441;81;25768;-84
2021/10/18 11:45:48;;;;;;;19.02;12.18;;;;;;;9.65;72.56;97959.11;1734849;81;27562;-84
2021/10/18 11:48:22;;;;;;;15.90;11.43;;;;;;;9.71;72.60;97958.33;1764772;79;25743;-84
2021/10/18 11:50:54;;;;;;;8.75;7.17;;;;;;;9.73;72.60;97960.33;1778947;79;26484;-88
2021/10/18 11:53:26;;;;;;;;;;;;;;;9.77;72.54;97959.95;1781512;79;26331;-84
2021/10/18 11:55:57;;;;;;;9.10;6.35;;;;;;;9.74;72.41;97963.34;1778808;80;25796;-83
2021/10/18 11:58:32;;;;;;;8.03;5.42;;;;;;;9.69;72.55;97951.45;1778795;79;27348;-84
2021/10/18 12:01:05;;;;;;;9.83;6.40;;;;;;;9.69;72.46;97949.59;1757377;79;26405;-84
2021/10/18 12:03:33;;;;;;;;;;;;;;;9.72;72.48;97951.91;1767918;79;25302;-83
2021/10/18 12:06:03;;;;;;;8.25;6.58;;;;;;;9.75;72.49;97956.92;1764893;80;25675;-84
2021/10/18 12:08:36;;;;;;;9.20;6.83;;;;;;;9.77;72.53;97963.98;1753675;81;25688;-85
2021/10/18 12:11:09;;;;;;;9.70;6.80;;;;;;;9.81;72.58;97967.95;1738676;79;46660;-86
2021/10/18 12:13:41;;;;;;;8.60;6.33;;;;;;;9.85;72.51;97965.20;1753761;80;25909;-84
2021/10/18 12:16:20;;;;;;;8.08;5.60;;;;;;;9.87;72.49;97959.10;1755768;79;25751;-84
2021/10/18 12:18:56;;;;;;;8.78;6.15;;;;;;;9.90;72.56;97960.08;1731842;81;26406;-84
2021/10/18 12:21:35;;;;;;;8.38;5.50;;;;;;;9.90;72.49;97964.12;1757718;79;26330;-89
2021/10/18 12:24:05;;;;;;;6.72;4.70;;;;;;;9.93;72.45;97963.70;1753185;80;27512;-83
2021/10/18 12:26:46;;;;;;;8.65;5.97;;;;;;;9.95;72.35;97970.58;1750304;79;25562;-85
2021/10/18 12:29:15;;;;;;;7.92;5.55;;;;;;;9.88;72.41;97970.21;1742420;80;25834;-84
2021/10/18 12:31:48;;;;;;;8.85;6.08;;;;;;;9.84;72.53;97975.15;1727613;80;25794;-86
2021/10/18 12:34:25;;;;;;;7.95;5.97;;;;;;;9.80;72.54;97971.67;1734348;80;26382;-84
2021/10/18 12:37:04;;;;;;;7.08;5.92;;;;;;;9.80;72.61;97977.06;1737017;80;28447;-84